This is the latest recevied weather packets stored in our database for station/object HS3UAA-1. If no packets are shown the sender has not sent any weather packets the latest 10 day(s).
| Time | Temp. | Humidity | Pressure | Rain* | Wind** | Luminosity | Snow |
|---|---|---|---|---|---|---|---|
| 1787685741 | 32.78° C | 48% | 995 hPa | - | - | 0 W/m² | - |
| 1787685419 | 33.33° C | 45% | 995 hPa | - | - | 0 W/m² | - |
| 1787685097 | 33.33° C | 47% | 995 hPa | - | - | 0 W/m² | - |
| 1787684775 | 33.33° C | 47% | 995 hPa | - | - | 0 W/m² | - |
| 1787684453 | 33.33° C | 47% | 995 hPa | - | - | 0 W/m² | - |
| 1787684131 | 33.89° C | 46% | 995 hPa | - | - | 0 W/m² | - |
| 1787683809 | 34.44° C | 45% | 995 hPa | - | - | 0 W/m² | - |
| 1787683487 | 33.89° C | 46% | 995 hPa | - | - | 0 W/m² | - |
| 1787683164 | 33.33° C | 46% | 995 hPa | - | - | 0 W/m² | - |
| 1787682842 | 33.33° C | 47% | 995 hPa | - | - | 0 W/m² | - |
| 1787682520 | 33.89° C | 45% | 995 hPa | - | - | 0 W/m² | - |
| 1787682198 | 33.33° C | 47% | 996 hPa | - | - | 0 W/m² | - |
| 1787681876 | 33.89° C | 46% | 996 hPa | - | - | 0 W/m² | - |
| 1787681554 | 33.33° C | 47% | 996 hPa | - | - | 0 W/m² | - |
| 1787681232 | 33.89° C | 46% | 996 hPa | - | - | 0 W/m² | - |
| 1787680910 | 33.33° C | 46% | 996 hPa | - | - | 0 W/m² | - |
| 1787680588 | 33.89° C | 46% | 996 hPa | - | - | 0 W/m² | - |
| 1787680266 | 33.33° C | 46% | 996 hPa | - | - | 0 W/m² | - |
| 1787679944 | 33.33° C | 46% | 996 hPa | - | - | 0 W/m² | - |
| 1787679622 | 33.33° C | 46% | 996 hPa | - | - | 0 W/m² | - |
| 1787679300 | 33.33° C | 46% | 996 hPa | - | - | 0 W/m² | - |
| 1787678978 | 33.33° C | 46% | 996 hPa | - | - | 0 W/m² | - |
| 1787678656 | 33.33° C | 46% | 996 hPa | - | - | 0 W/m² | - |
| 1787678334 | 34.44° C | 44% | 996 hPa | - | - | 0 W/m² | - |
| 1787678012 | 33.33° C | 46% | 996 hPa | - | - | 0 W/m² | - |
* Rain since midnight (hover to see other rain measurements)
** Current wind speed in m/s (hover to see current wind gust speed)